createdAt,value
2023-04-02T00:02:33.518Z,7.60
2023-04-02T00:05:52.124Z,7.60
2023-04-02T00:08:27.028Z,7.70
2023-04-02T00:11:00.475Z,7.70
2023-04-02T00:13:36.372Z,7.70
2023-04-02T00:16:11.016Z,7.60
2023-04-02T00:18:45.943Z,7.60
2023-04-02T00:21:21.456Z,7.60
2023-04-02T00:23:54.686Z,7.50
2023-04-02T00:26:33.895Z,7.50
2023-04-02T00:29:07.718Z,7.50
2023-04-02T00:31:42.105Z,7.40
2023-04-02T00:34:19.120Z,7.40
2023-04-02T00:36:51.769Z,7.40
2023-04-02T00:39:27.500Z,7.40
2023-04-02T00:42:05.729Z,7.50
2023-04-02T00:44:42.042Z,7.50
2023-04-02T00:47:17.593Z,7.50
2023-04-02T00:49:50.148Z,7.50
2023-04-02T00:52:24.644Z,7.60
2023-04-02T00:54:59.959Z,7.60
2023-04-02T00:57:33.520Z,7.70
2023-04-02T01:00:17.990Z,7.60
2023-04-02T01:03:29.444Z,7.60
2023-04-02T01:06:07.313Z,7.50
2023-04-02T01:08:56.307Z,7.50
2023-04-02T01:11:47.090Z,7.50
2023-04-02T01:14:22.894Z,7.40
2023-04-02T01:16:59.701Z,7.40
2023-04-02T01:19:53.210Z,7.40
2023-04-02T01:22:30.770Z,7.50
2023-04-02T01:25:04.409Z,7.40
2023-04-02T01:27:39.920Z,7.40
2023-04-02T01:30:14.690Z,7.40
2023-04-02T01:32:46.284Z,7.40
2023-04-02T01:35:18.328Z,7.40
2023-04-02T01:37:53.209Z,7.40
2023-04-02T01:40:32.718Z,7.40
2023-04-02T01:43:10.512Z,7.40
2023-04-02T01:45:42.468Z,7.40
2023-04-02T01:48:20.051Z,7.40
2023-04-02T01:50:54.818Z,7.40
2023-04-02T01:53:29.318Z,7.50
2023-04-02T01:56:04.718Z,7.50
2023-04-02T01:58:36.642Z,7.50
2023-04-02T02:01:11.089Z,7.40
2023-04-02T02:03:44.515Z,7.40
2023-04-02T02:06:17.908Z,7.40
2023-04-02T02:08:53.355Z,7.40
2023-04-02T02:11:28.252Z,7.30
2023-04-02T02:14:01.508Z,7.40
2023-04-02T02:16:33.878Z,7.40
2023-04-02T02:19:06.946Z,7.30
2023-04-02T02:21:41.312Z,7.30
2023-04-02T02:24:17.384Z,7.30
2023-04-02T02:26:52.274Z,7.20
2023-04-02T02:29:26.138Z,7.20
2023-04-02T02:31:59.477Z,7.20
2023-04-02T02:34:36.114Z,7.20
2023-04-02T02:37:11.030Z,7.20
2023-04-02T02:39:45.499Z,7.20
2023-04-02T02:42:20.395Z,7.30
2023-04-02T02:44:53.832Z,7.30
2023-04-02T02:47:28.688Z,7.30
2023-04-02T02:50:03.630Z,7.40
2023-04-02T02:52:37.149Z,7.40
2023-04-02T02:55:11.893Z,7.40
2023-04-02T02:57:46.227Z,7.40
2023-04-02T03:00:19.886Z,7.40
2023-04-02T03:02:52.925Z,7.50
2023-04-02T03:05:28.541Z,7.50
2023-04-02T03:08:01.762Z,7.50
2023-04-02T03:10:37.134Z,7.50
2023-04-02T03:13:12.041Z,7.50
2023-04-02T03:15:46.705Z,7.60
2023-04-02T03:18:21.176Z,7.60
2023-04-02T03:20:55.626Z,7.60
2023-04-02T03:23:30.387Z,7.60
2023-04-02T03:26:04.986Z,7.50
2023-04-02T03:28:39.316Z,7.50
2023-04-02T03:31:14.321Z,7.40
2023-04-02T03:33:48.884Z,7.50
2023-04-02T03:36:23.799Z,7.50
2023-04-02T03:38:59.457Z,7.60
2023-04-02T03:41:35.435Z,7.60
2023-04-02T03:44:10.332Z,7.60
2023-04-02T03:46:44.948Z,7.60
2023-04-02T03:49:20.426Z,7.50
2023-04-02T03:51:55.802Z,7.50
2023-04-02T03:54:28.630Z,7.50
2023-04-02T03:57:01.384Z,7.50
2023-04-02T03:59:40.459Z,7.50
2023-04-02T04:02:19.779Z,7.40
2023-04-02T04:04:53.797Z,7.50
2023-04-02T04:07:31.127Z,7.50
2023-04-02T04:10:04.237Z,7.50
2023-04-02T04:12:37.903Z,7.50
2023-04-02T04:15:14.540Z,7.40
2023-04-02T04:17:53.415Z,7.30
2023-04-02T04:20:28.058Z,7.30
2023-04-02T04:23:10.588Z,7.20
2023-04-02T04:25:42.599Z,7.10
2023-04-02T04:28:19.902Z,7.10
2023-04-02T04:30:54.732Z,7.00
2023-04-02T04:33:30.830Z,7.00
2023-04-02T04:36:04.831Z,7.00
2023-04-02T04:38:40.819Z,6.90
2023-04-02T04:41:16.791Z,6.90
2023-04-02T04:43:51.153Z,6.90
2023-04-02T04:46:26.104Z,6.90
2023-04-02T04:49:01.013Z,6.80
2023-04-02T04:51:35.868Z,6.80
2023-04-02T04:54:08.841Z,6.70
2023-04-02T04:56:40.970Z,6.60
2023-04-02T04:59:18.586Z,6.60
2023-04-02T05:01:53.756Z,6.60
2023-04-02T05:04:28.329Z,6.60
2023-04-02T05:07:03.797Z,6.70
2023-04-02T05:09:38.428Z,6.70
2023-04-02T05:12:14.923Z,6.60
2023-04-02T05:14:49.286Z,6.60
2023-04-02T05:17:24.865Z,6.60
2023-04-02T05:19:59.354Z,6.60
2023-04-02T05:22:34.466Z,6.70
2023-04-02T05:25:18.857Z,6.80
2023-04-02T05:27:54.388Z,6.80
2023-04-02T05:30:41.740Z,6.80
2023-04-02T05:33:21.434Z,6.90
2023-04-02T05:35:58.666Z,6.90
2023-04-02T05:38:33.263Z,7.00
2023-04-02T05:41:08.099Z,7.00
2023-04-02T05:43:42.796Z,7.10
2023-04-02T05:46:19.445Z,7.20
2023-04-02T05:48:54.259Z,7.20
2023-04-02T05:51:28.981Z,7.20
2023-04-02T05:54:03.835Z,7.20
2023-04-02T05:56:38.451Z,7.20
2023-04-02T05:59:14.019Z,7.30
2023-04-02T06:01:49.226Z,7.40
2023-04-02T06:04:25.412Z,7.40
2023-04-02T06:07:02.309Z,7.50
2023-04-02T06:09:39.389Z,7.60
2023-04-02T06:12:22.394Z,7.70
2023-04-02T06:14:53.779Z,7.80
2023-04-02T06:17:25.577Z,7.80
2023-04-02T06:19:59.046Z,7.80
2023-04-02T06:22:34.734Z,7.90
2023-04-02T06:25:09.643Z,7.90
2023-04-02T06:27:43.431Z,8.00
2023-04-02T06:30:20.214Z,8.10
2023-04-02T06:32:51.822Z,8.20
2023-04-02T06:35:23.658Z,8.30
2023-04-02T06:37:58.248Z,8.30
2023-04-02T06:40:40.144Z,8.40
2023-04-02T06:43:16.666Z,8.40
2023-04-02T06:45:50.837Z,8.40
2023-04-02T06:48:24.416Z,8.30
2023-04-02T06:50:58.898Z,8.40
2023-04-02T06:53:34.021Z,8.60
2023-04-02T06:56:10.452Z,8.90
2023-04-02T06:58:42.036Z,9.20
2023-04-02T07:01:17.822Z,9.70
2023-04-02T07:03:49.672Z,10.00
2023-04-02T07:06:22.651Z,10.40
2023-04-02T07:08:54.283Z,11.30
2023-04-02T07:11:26.145Z,11.80
2023-04-02T07:13:57.803Z,12.00
2023-04-02T07:16:31.295Z,12.00
2023-04-02T07:19:04.033Z,11.70
2023-04-02T07:21:35.516Z,11.60
2023-04-02T07:24:08.057Z,11.50
2023-04-02T07:26:40.044Z,11.40
2023-04-02T07:29:15.336Z,11.30
2023-04-02T07:31:47.342Z,11.10
2023-04-02T07:34:18.905Z,11.00
2023-04-02T07:36:50.365Z,11.00
2023-04-02T07:39:22.097Z,11.10
2023-04-02T07:41:55.755Z,11.10
2023-04-02T07:44:27.249Z,11.20
2023-04-02T07:46:59.179Z,11.10
2023-04-02T07:49:30.993Z,11.20
2023-04-02T07:52:02.457Z,11.00
2023-04-02T07:54:33.914Z,10.90
2023-04-02T07:57:05.418Z,11.00
2023-04-02T07:59:36.948Z,11.00
2023-04-02T08:02:10.244Z,11.00
2023-04-02T08:04:41.801Z,11.10
2023-04-02T08:07:13.237Z,11.00
2023-04-02T08:09:44.727Z,11.10
2023-04-02T08:12:16.599Z,11.10
2023-04-02T08:14:48.151Z,11.10
2023-04-02T08:17:19.566Z,11.20
2023-04-02T08:19:55.183Z,11.30
2023-04-02T08:22:25.260Z,11.40
2023-04-02T08:24:57.117Z,11.50
2023-04-02T08:27:28.647Z,11.60
2023-04-02T08:30:00.128Z,11.70
2023-04-02T08:32:31.615Z,12.00
2023-04-02T08:35:03.306Z,12.20
2023-04-02T08:37:34.964Z,12.10
2023-04-02T08:40:09.893Z,12.00
2023-04-02T08:42:44.552Z,11.90
2023-04-02T08:45:24.828Z,11.70
2023-04-02T08:47:59.937Z,11.60
2023-04-02T08:50:34.596Z,11.60
2023-04-02T08:53:09.351Z,11.70
2023-04-02T08:55:43.971Z,11.90
2023-04-02T08:58:22.997Z,12.10
2023-04-02T09:00:57.964Z,12.20
2023-04-02T09:03:33.846Z,12.20
2023-04-02T09:06:07.701Z,12.30
2023-04-02T09:08:41.304Z,12.40
2023-04-02T09:11:17.528Z,12.40
2023-04-02T09:13:52.404Z,12.30
2023-04-02T09:16:27.972Z,12.20
2023-04-02T09:18:59.967Z,12.10
2023-04-02T09:21:38.584Z,12.20
2023-04-02T09:24:12.654Z,12.10
2023-04-02T09:26:44.122Z,12.00
2023-04-02T09:29:38.433Z,12.00
2023-04-02T09:32:34.317Z,12.10
2023-04-02T09:35:25.671Z,12.10
2023-04-02T09:37:51.156Z,12.10
2023-04-02T09:40:28.237Z,12.20
2023-04-02T09:46:08.098Z,12.10
2023-04-02T09:48:43.814Z,12.10
2023-04-02T09:51:21.356Z,12.10
2023-04-02T09:53:55.198Z,12.20
2023-04-02T09:57:11.587Z,12.30
2023-04-02T09:59:42.997Z,12.50
2023-04-02T10:02:28.016Z,12.60
2023-04-02T10:05:03.250Z,12.70
2023-04-02T10:07:38.136Z,12.70
2023-04-02T10:10:23.941Z,12.70
2023-04-02T10:13:00.221Z,12.80
2023-04-02T10:15:36.009Z,12.90
2023-04-02T10:20:57.154Z,12.80
2023-04-02T10:23:31.301Z,12.80
2023-04-02T10:26:09.979Z,12.70
2023-04-02T10:28:50.957Z,12.60
2023-04-02T10:31:24.424Z,12.60
2023-04-02T10:34:00.647Z,12.50
2023-04-02T10:36:38.643Z,12.70
2023-04-02T10:39:13.327Z,12.90
2023-04-02T10:41:47.522Z,13.10
2023-04-02T10:44:32.062Z,13.20
2023-04-02T10:47:16.820Z,13.20
2023-04-02T10:49:52.945Z,13.30
2023-04-02T10:52:27.665Z,13.40
2023-04-02T10:55:02.092Z,13.40
2023-04-02T10:57:37.754Z,13.60
2023-04-02T11:00:18.426Z,13.50
2023-04-02T11:02:54.115Z,13.60
2023-04-02T11:05:30.471Z,13.80
2023-04-02T11:08:06.893Z,14.00
2023-04-02T11:10:41.374Z,14.20
2023-04-02T11:13:18.031Z,14.30
2023-04-02T11:15:49.632Z,14.50
2023-04-02T11:18:32.352Z,14.80
2023-04-02T11:21:16.763Z,14.90
2023-04-02T11:24:00.219Z,14.80
2023-04-02T11:26:45.435Z,14.90
2023-04-02T11:29:21.647Z,15.00
2023-04-02T11:32:10.465Z,15.00
2023-04-02T11:35:30.093Z,15.10
2023-04-02T11:38:04.182Z,15.30
2023-04-02T11:40:51.095Z,15.40
2023-04-02T11:46:46.147Z,15.50
2023-04-02T11:49:40.342Z,15.80
2023-04-02T11:52:30.639Z,15.80
2023-04-02T11:55:28.078Z,15.80
2023-04-02T11:58:22.800Z,15.90
2023-04-02T12:01:24.218Z,16.00
2023-04-02T12:04:24.631Z,15.90
2023-04-02T12:07:07.738Z,16.00
2023-04-02T12:09:46.536Z,16.30
2023-04-02T12:12:21.537Z,16.50
2023-04-02T12:14:54.956Z,16.60
2023-04-02T12:17:33.474Z,16.60
2023-04-02T12:20:17.835Z,16.70
2023-04-02T12:22:51.985Z,16.60
2023-04-02T12:25:29.998Z,16.50
2023-04-02T12:28:16.663Z,16.40
2023-04-02T12:30:49.699Z,16.30
2023-04-02T12:33:33.608Z,16.30
2023-04-02T12:36:09.612Z,16.30
2023-04-02T12:38:49.456Z,16.10
2023-04-02T12:41:27.426Z,15.80
2023-04-02T12:44:03.593Z,15.80
2023-04-02T12:46:36.872Z,15.90
2023-04-02T12:49:11.929Z,15.90
2023-04-02T12:51:43.475Z,15.90
2023-04-02T12:54:18.406Z,15.80
2023-04-02T12:56:50.708Z,15.50
2023-04-02T12:59:36.815Z,15.40
2023-04-02T13:02:20.608Z,15.60
2023-04-02T13:04:53.900Z,15.60
2023-04-02T13:07:27.450Z,15.70
2023-04-02T13:10:00.488Z,15.70
2023-04-02T13:12:35.509Z,15.70
2023-04-02T13:15:11.364Z,15.90
2023-04-02T13:17:45.559Z,15.90
2023-04-02T13:20:35.235Z,16.10
2023-04-02T13:23:33.009Z,16.20
2023-04-02T13:26:12.743Z,16.10
2023-04-02T13:28:45.328Z,16.20
2023-04-02T13:31:18.290Z,16.20
2023-04-02T13:33:49.882Z,16.20
2023-04-02T13:36:21.361Z,16.20
2023-04-02T13:38:52.959Z,16.20
2023-04-02T13:41:27.264Z,16.20
2023-04-02T13:44:01.836Z,16.20
2023-04-02T13:46:35.700Z,15.70
2023-04-02T13:49:07.158Z,15.70
2023-04-02T13:51:40.637Z,15.70
2023-04-02T13:54:16.277Z,15.80
2023-04-02T13:56:47.819Z,16.00
2023-04-02T13:59:19.441Z,16.10
2023-04-02T14:01:53.685Z,16.30
2023-04-02T14:04:28.379Z,16.50
2023-04-02T14:07:33.170Z,16.40
2023-04-02T14:10:11.517Z,16.50
2023-04-02T14:12:49.477Z,16.80
2023-04-02T14:15:34.742Z,16.90
2023-04-02T14:18:18.248Z,17.10
2023-04-02T14:20:52.792Z,16.90
2023-04-02T14:23:36.046Z,16.80
2023-04-02T14:26:12.467Z,16.90
2023-04-02T14:28:49.228Z,17.10
2023-04-02T14:31:23.683Z,17.20
2023-04-02T14:33:59.654Z,17.50
2023-04-02T14:36:35.536Z,17.50
2023-04-02T14:39:10.233Z,17.40
2023-04-02T14:41:49.204Z,17.30
2023-04-02T14:44:29.306Z,17.40
2023-04-02T14:47:04.543Z,17.20
2023-04-02T14:49:40.147Z,17.10
2023-04-02T14:52:15.463Z,16.90
2023-04-02T14:54:52.454Z,16.80
2023-04-02T14:57:26.512Z,16.40
2023-04-02T15:00:05.170Z,15.80
2023-04-02T15:02:44.816Z,15.40
2023-04-02T15:05:20.622Z,15.00
2023-04-02T15:07:55.176Z,14.70
2023-04-02T15:10:30.132Z,14.20
2023-04-02T15:13:04.456Z,14.00
2023-04-02T15:15:41.918Z,13.70
2023-04-02T15:18:16.129Z,13.40
2023-04-02T15:21:09.689Z,13.20
2023-04-02T15:23:49.031Z,13.00
2023-04-02T15:26:24.212Z,12.80
2023-04-02T15:29:00.938Z,12.70
2023-04-02T15:31:33.902Z,12.70
2023-04-02T15:34:17.463Z,12.60
2023-04-02T15:36:57.734Z,12.60
2023-04-02T15:39:39.131Z,12.50
2023-04-02T15:42:23.710Z,12.40
2023-04-02T15:45:16.949Z,12.30
2023-04-02T15:48:11.027Z,12.30
2023-04-02T15:50:49.949Z,12.50
2023-04-02T15:53:47.794Z,12.60
2023-04-02T15:56:26.309Z,12.70
2023-04-02T15:59:09.679Z,12.80
2023-04-02T16:01:44.491Z,13.00
2023-04-02T16:04:37.863Z,13.20
2023-04-02T16:07:37.238Z,13.20
2023-04-02T16:10:12.860Z,13.30
2023-04-02T16:12:44.738Z,13.40
2023-04-02T16:15:22.140Z,13.40
2023-04-02T16:18:10.651Z,13.40
2023-04-02T16:20:45.528Z,13.40
2023-04-02T16:23:20.426Z,13.20
2023-04-02T16:25:57.204Z,12.80
2023-04-02T16:28:32.439Z,12.40
2023-04-02T16:31:08.883Z,12.00
2023-04-02T16:33:47.802Z,11.50
2023-04-02T16:36:29.223Z,11.10
2023-04-02T16:39:04.729Z,10.70
2023-04-02T16:41:46.227Z,10.40
2023-04-02T16:44:25.867Z,10.20
2023-04-02T16:47:02.677Z,9.90
2023-04-02T16:49:38.709Z,9.70
2023-04-02T16:52:19.329Z,9.50
2023-04-02T16:54:55.383Z,9.30
2023-04-02T16:57:48.041Z,9.10
2023-04-02T17:00:23.437Z,9.00
2023-04-02T17:03:04.326Z,8.90
2023-04-02T17:05:38.453Z,8.90
2023-04-02T17:08:17.639Z,8.80
2023-04-02T17:10:52.586Z,8.80
2023-04-02T17:13:31.676Z,8.80
2023-04-02T17:16:09.571Z,8.90
2023-04-02T17:18:53.319Z,8.90
2023-04-02T17:21:28.066Z,8.90
2023-04-02T17:24:03.093Z,9.00
2023-04-02T17:26:37.638Z,9.00
2023-04-02T17:29:14.712Z,8.90
2023-04-02T17:31:55.171Z,8.90
2023-04-02T17:34:27.103Z,8.90
2023-04-02T17:37:05.453Z,8.90
2023-04-02T17:39:41.945Z,8.90
2023-04-02T17:42:18.993Z,8.90
2023-04-02T17:44:59.043Z,8.80
2023-04-02T17:47:35.340Z,8.90
2023-04-02T17:50:31.120Z,8.90
2023-04-02T17:53:07.865Z,9.00
2023-04-02T17:55:45.699Z,9.00
2023-04-02T17:58:24.072Z,9.10
2023-04-02T18:01:01.663Z,9.10
2023-04-02T18:06:49.514Z,9.10
2023-04-02T18:09:29.056Z,9.10
2023-04-02T18:12:06.604Z,9.10
2023-04-02T18:14:49.626Z,9.00
2023-04-02T18:17:25.424Z,9.00
2023-04-02T18:20:00.173Z,9.00
2023-04-02T18:22:37.339Z,9.00
2023-04-02T18:25:21.839Z,9.00
2023-04-02T18:28:07.696Z,9.10
2023-04-02T18:30:42.284Z,9.10
2023-04-02T18:36:27.535Z,9.20
2023-04-02T18:39:02.726Z,9.20
2023-04-02T18:41:45.765Z,9.10
2023-04-02T18:44:40.248Z,9.10
2023-04-02T18:47:15.055Z,9.00
2023-04-02T18:49:52.389Z,9.00
2023-04-02T18:52:26.208Z,8.90
2023-04-02T18:55:01.981Z,9.00
2023-04-02T18:57:36.147Z,9.00
2023-04-02T19:00:16.643Z,9.00
2023-04-02T19:02:50.476Z,9.00
2023-04-02T19:05:26.664Z,9.00
2023-04-02T19:08:01.412Z,9.00
2023-04-02T19:10:35.041Z,8.90
2023-04-02T19:13:14.108Z,8.80
2023-04-02T19:19:05.644Z,8.70
2023-04-02T19:21:42.165Z,8.70
2023-04-02T19:24:26.234Z,8.60
2023-04-02T19:27:01.426Z,8.50
2023-04-02T19:29:38.390Z,8.60
2023-04-02T19:32:14.361Z,8.60
2023-04-02T19:34:48.890Z,8.70
2023-04-02T19:37:23.859Z,8.60
2023-04-02T19:40:06.634Z,8.60
2023-04-02T19:42:49.193Z,8.50
2023-04-02T19:45:29.718Z,8.50
2023-04-02T19:48:04.545Z,8.50
2023-04-02T19:50:36.050Z,8.50
2023-04-02T19:53:07.484Z,8.40
2023-04-02T19:55:40.386Z,8.40
2023-04-02T19:58:19.752Z,8.40
2023-04-02T20:00:50.074Z,8.40
2023-04-02T20:03:21.637Z,8.30
2023-04-02T20:05:53.223Z,8.30
2023-04-02T20:08:24.732Z,8.30
2023-04-02T20:10:57.862Z,8.30
2023-04-02T20:13:29.928Z,8.40
2023-04-02T20:16:02.655Z,8.40
2023-04-02T20:18:36.289Z,8.40
2023-04-02T20:21:08.532Z,8.30
2023-04-02T20:23:40.012Z,8.30
2023-04-02T20:26:12.886Z,8.30
2023-04-02T20:28:44.303Z,8.30
2023-04-02T20:31:18.447Z,8.20
2023-04-02T20:33:50.382Z,8.30
2023-04-02T20:36:22.968Z,8.20
2023-04-02T20:38:54.735Z,8.20
2023-04-02T20:41:27.351Z,8.20
2023-04-02T20:43:58.779Z,8.20
2023-04-02T20:46:30.497Z,8.10
2023-04-02T20:49:02.440Z,8.20
2023-04-02T20:51:35.895Z,8.10
2023-04-02T20:54:07.545Z,8.10
2023-04-02T20:56:39.914Z,8.10
2023-04-02T20:59:14.890Z,8.10
2023-04-02T21:01:46.965Z,8.10
2023-04-02T21:04:19.650Z,8.10
2023-04-02T21:06:52.846Z,8.10
2023-04-02T21:09:24.647Z,8.10
2023-04-02T21:11:56.210Z,8.20
2023-04-02T21:14:29.950Z,8.10
2023-04-02T21:17:01.402Z,8.10
2023-04-02T21:19:33.004Z,8.10
2023-04-02T21:22:04.871Z,8.10
2023-04-02T21:24:35.567Z,8.00
2023-04-02T21:27:07.118Z,8.00
2023-04-02T21:29:38.773Z,8.00
2023-04-02T21:32:20.911Z,8.00
2023-04-02T21:34:43.558Z,8.00
2023-04-02T21:37:15.015Z,8.00
2023-04-02T21:39:46.652Z,8.00
2023-04-02T21:42:18.426Z,8.10
2023-04-02T21:44:49.966Z,8.00
2023-04-02T21:47:23.476Z,8.00
2023-04-02T21:49:55.217Z,8.00
2023-04-02T21:52:26.616Z,8.00
2023-04-02T21:54:58.939Z,8.10
2023-04-02T21:57:30.828Z,8.10
2023-04-02T22:00:04.058Z,8.10
2023-04-02T22:02:37.342Z,8.10
2023-04-02T22:05:13.615Z,8.10
2023-04-02T22:07:49.139Z,8.10
2023-04-02T22:10:20.775Z,8.00
2023-04-02T22:12:52.722Z,8.10
2023-04-02T22:15:24.271Z,8.00
2023-04-02T22:17:55.733Z,8.00
2023-04-02T22:20:27.454Z,8.00
2023-04-02T22:22:58.858Z,8.00
2023-04-02T22:25:30.890Z,8.00
2023-04-02T22:28:02.389Z,8.00
2023-04-02T22:30:35.874Z,8.00
2023-04-02T22:33:07.575Z,8.10
2023-04-02T22:35:39.417Z,8.10
2023-04-02T22:38:12.050Z,8.10
2023-04-02T22:40:43.877Z,8.10
2023-04-02T22:43:15.797Z,8.10
2023-04-02T22:45:48.940Z,8.10
2023-04-02T22:48:20.381Z,8.10
2023-04-02T22:50:52.340Z,8.10
2023-04-02T22:53:24.727Z,8.10
2023-04-02T22:55:56.660Z,8.10
2023-04-02T22:58:28.075Z,8.20
2023-04-02T23:01:03.828Z,8.10
2023-04-02T23:03:35.356Z,8.10
2023-04-02T23:06:09.105Z,8.10
2023-04-02T23:08:41.383Z,8.10
2023-04-02T23:11:14.990Z,8.10
2023-04-02T23:13:48.077Z,8.10
2023-04-02T23:16:22.567Z,8.20
2023-04-02T23:18:55.529Z,8.20
2023-04-02T23:21:28.006Z,8.20
2023-04-02T23:23:59.729Z,8.20
2023-04-02T23:26:33.081Z,8.20
2023-04-02T23:29:06.337Z,8.10
2023-04-02T23:31:38.321Z,8.10
2023-04-02T23:34:11.676Z,8.10
2023-04-02T23:36:43.291Z,8.10
2023-04-02T23:39:16.200Z,8.10
2023-04-02T23:41:48.458Z,8.10
2023-04-02T23:44:19.922Z,8.20
2023-04-02T23:46:51.564Z,8.10
2023-04-02T23:49:23.705Z,8.10
2023-04-02T23:51:55.764Z,8.10
2023-04-02T23:54:27.289Z,8.10
2023-04-02T23:56:58.719Z,8.10
2023-04-02T23:59:30.351Z,8.10
